Time;durP1;ratioP1;P1;durP2;ratioP2;P2;SDS_P1;SDS_P2;PMS_P1;PMS_P2;Temp;Humidity;BMP_temperature;BMP_pressure;BME280_temperature;BME280_humidity;BME280_pressure;Samples;Min_cycle;Max_cycle;Signal;HPM_P1;HPM_P2
2022/01/24 00:01:28;;;;;;;1.10;0.97;;;17.50;65.20;;;;;;10514301;28;20196;-67
2022/01/24 00:06:51;;;;;;;1.10;0.93;;;17.50;65.80;;;;;;10500101;28;20305;-68
2022/01/24 00:12:18;;;;;;;1.73;1.30;;;17.50;65.20;;;;;;10495595;28;20231;-68
2022/01/24 00:17:49;;;;;;;0.80;0.80;;;17.50;65.20;;;;;;10525464;28;20582;-70
2022/01/24 00:28:52;;;;;;;0.80;0.80;;;17.50;65.20;;;;;;10526909;28;20204;-67
2022/01/24 00:34:15;;;;;;;1.07;0.90;;;17.50;65.20;;;;;;10496122;28;20593;-67
2022/01/24 00:39:39;;;;;;;1.20;0.90;;;17.50;65.20;;;;;;10494659;28;20748;-67
2022/01/24 00:45:08;;;;;;;1.20;0.80;;;17.40;65.10;;;;;;10498052;28;20352;-67
2022/01/24 00:56:13;;;;;;;1.70;0.70;;;17.40;65.10;;;;;;10493592;28;20566;-68
2022/01/24 01:01:36;;;;;;;0.93;0.83;;;17.40;65.10;;;;;;10501643;28;20192;-68
2022/01/24 01:07:04;;;;;;;0.63;0.60;;;17.40;65.10;;;;;;10489501;28;20215;-66
2022/01/24 01:18:14;;;;;;;1.10;0.70;;;17.40;65.10;;;;;;10491321;28;20212;-68
2022/01/24 01:23:41;;;;;;;0.80;0.70;;;17.40;65.10;;;;;;10493175;28;20334;-68
2022/01/24 01:29:08;;;;;;;1.53;0.90;;;17.40;65.10;;;;;;10533903;28;20730;-67
2022/01/24 01:34:52;;;;;;;1.10;0.67;;;17.40;65.10;;;;;;10513224;28;20217;-66
2022/01/24 01:57:20;;;;;;;0.63;0.63;;;17.40;65.30;;;;;;10492952;28;20212;-66
2022/01/24 02:02:42;;;;;;;1.07;0.60;;;17.40;65.00;;;;;;10492681;28;20197;-67
2022/01/24 02:08:06;;;;;;;0.70;0.70;;;17.40;65.00;;;;;;10493252;28;20220;-67
2022/01/24 02:13:30;;;;;;;0.40;0.40;;;17.40;65.00;;;;;;10500112;28;20204;-67
2022/01/24 02:19:05;;;;;;;1.07;0.83;;;17.40;65.00;;;;;;10491039;28;20192;-66
2022/01/24 02:24:32;;;;;;;0.77;0.70;;;17.40;65.00;;;;;;10494244;28;20224;-66
2022/01/24 02:30:08;;;;;;;1.90;0.60;;;17.40;65.00;;;;;;10532423;28;20218;-67
2022/01/24 02:35:30;;;;;;;0.70;0.60;;;17.40;65.50;;;;;;10533036;28;20235;-67
2022/01/24 02:52:14;;;;;;;0.50;0.50;;;17.40;65.00;;;;;;10506690;28;20209;-67
2022/01/24 02:57:38;;;;;;;0.67;0.57;;;17.40;65.00;;;;;;10491429;28;20217;-66
2022/01/24 03:03:00;;;;;;;0.60;0.60;;;17.40;64.90;;;;;;10497275;28;20192;-67
2022/01/24 03:08:22;;;;;;;0.53;0.47;;;17.40;64.90;;;;;;10499084;28;20208;-67
2022/01/24 03:13:46;;;;;;;0.50;0.50;;;17.40;64.90;;;;;;10499350;28;20274;-66
2022/01/24 03:19:08;;;;;;;1.03;0.60;;;17.40;64.90;;;;;;10499065;28;20280;-66
2022/01/24 03:24:30;;;;;;;0.63;0.50;;;17.40;65.00;;;;;;10501035;28;20227;-66
2022/01/24 03:29:54;;;;;;;0.87;0.50;;;17.40;64.90;;;;;;10525760;28;20224;-66
2022/01/24 03:35:16;;;;;;;1.00;0.70;;;17.40;64.90;;;;;;10537669;28;20628;-67
2022/01/24 03:40:38;;;;;;;0.73;0.60;;;17.40;64.90;;;;;;10508977;28;20191;-67
2022/01/24 03:46:13;;;;;;;0.73;0.70;;;17.40;65.50;;;;;;10455389;28;20217;-67
2022/01/24 03:51:35;;;;;;;1.20;0.57;;;17.40;64.90;;;;;;10455776;28;20209;-67
2022/01/24 03:56:57;;;;;;;0.50;0.50;;;17.40;64.90;;;;;;10456009;28;20220;-67
2022/01/24 04:02:24;;;;;;;1.10;0.70;;;17.40;64.90;;;;;;10484079;28;20659;-65
2022/01/24 04:07:46;;;;;;;0.40;0.40;;;17.40;64.90;;;;;;10495570;28;20560;-67
2022/01/24 04:13:22;;;;;;;0.60;0.60;;;17.40;64.90;;;;;;10463067;28;20761;-67
2022/01/24 04:18:52;;;;;;;1.07;0.50;;;17.40;64.90;;;;;;10523839;28;20304;-67
2022/01/24 04:24:19;;;;;;;0.50;0.50;;;17.40;64.90;;;;;;10535831;28;20587;-66
2022/01/24 04:29:42;;;;;;;0.50;0.50;;;17.40;64.90;;;;;;10494169;28;20207;-66
2022/01/24 04:35:06;;;;;;;0.50;0.50;;;17.40;64.90;;;;;;10492550;28;20208;-67
2022/01/24 04:40:29;;;;;;;0.90;0.70;;;17.40;64.90;;;;;;10493892;28;20280;-66
2022/01/24 04:46:08;;;;;;;1.43;0.60;;;17.40;64.90;;;;;;10452963;28;20228;-67
2022/01/24 04:51:40;;;;;;;0.50;0.50;;;17.40;64.90;;;;;;10452842;28;20223;-66
2022/01/24 04:57:03;;;;;;;0.73;0.50;;;17.50;64.90;;;;;;10493648;28;20587;-69
2022/01/24 05:02:26;;;;;;;1.07;0.50;;;17.50;64.90;;;;;;10504432;28;20575;-67
2022/01/24 05:07:50;;;;;;;0.57;0.40;;;17.40;64.80;;;;;;10494720;28;20216;-66
2022/01/24 05:24:35;;;;;;;0.83;0.60;;;17.40;64.70;;;;;;10496290;28;20690;-67
2022/01/24 05:29:57;;;;;;;0.50;0.50;;;17.50;64.70;;;;;;10503405;28;20216;-67
2022/01/24 05:35:19;;;;;;;0.57;0.40;;;17.50;64.70;;;;;;10493150;28;20220;-67
2022/01/24 05:40:43;;;;;;;0.37;0.37;;;17.50;64.70;;;;;;10491692;28;20197;-67
2022/01/24 05:46:06;;;;;;;0.47;0.30;;;17.50;64.70;;;;;;10452876;28;20734;-66
2022/01/24 05:51:29;;;;;;;0.40;0.40;;;17.50;64.70;;;;;;10454147;28;20583;-67
2022/01/24 05:56:52;;;;;;;0.27;0.27;;;17.50;64.70;;;;;;10495038;28;20222;-67
2022/01/24 06:02:14;;;;;;;0.30;0.30;;;17.50;65.20;;;;;;10503171;28;20188;-67
2022/01/24 06:07:37;;;;;;;0.77;0.50;;;17.50;64.60;;;;;;10488837;28;20224;-67
2022/01/24 06:13:00;;;;;;;0.30;0.30;;;17.50;64.60;;;;;;10494340;28;20238;-67
2022/01/24 06:18:25;;;;;;;0.40;0.40;;;17.50;65.30;;;;;;10502147;28;20196;-67
2022/01/24 06:23:47;;;;;;;0.50;0.50;;;17.50;64.60;;;;;;10492556;28;20219;-66
2022/01/24 06:29:12;;;;;;;0.87;0.50;;;17.50;64.60;;;;;;10494104;22;20229;-69
2022/01/24 06:34:34;;;;;;;0.53;0.40;;;17.50;64.60;;;;;;10467781;28;20208;-69
2022/01/24 06:39:56;;;;;;;0.30;0.30;;;17.50;64.60;;;;;;10479901;28;20232;-69
2022/01/24 06:45:20;;;;;;;0.30;0.30;;;17.50;64.60;;;;;;10460945;28;20280;-69
2022/01/24 06:50:42;;;;;;;0.50;0.47;;;17.50;64.60;;;;;;10468702;28;20220;-69
2022/01/24 06:56:05;;;;;;;0.40;0.33;;;17.50;64.60;;;;;;10475067;28;20695;-69
2022/01/24 07:01:28;;;;;;;0.40;0.40;;;17.50;64.60;;;;;;10458027;28;20216;-69
2022/01/24 07:06:51;;;;;;;0.50;0.50;;;17.50;64.50;;;;;;10456605;28;20201;-69
2022/01/24 07:12:13;;;;;;;0.63;0.50;;;17.50;64.50;;;;;;10454303;28;20220;-67
2022/01/24 07:17:58;;;;;;;0.50;0.40;;;17.50;64.50;;;;;;10455104;28;20198;-68
2022/01/24 07:23:20;;;;;;;0.63;0.40;;;17.50;64.60;;;;;;10458151;28;20561;-68
2022/01/24 07:28:44;;;;;;;1.37;0.40;;;17.50;64.80;;;;;;10483118;28;20243;-67
2022/01/24 07:34:07;;;;;;;0.47;0.43;;;17.50;64.80;;;;;;10457138;28;20642;-68
2022/01/24 07:39:31;;;;;;;0.90;0.40;;;17.50;64.90;;;;;;10455065;28;20217;-67
2022/01/24 07:44:53;;;;;;;0.37;0.37;;;17.50;65.00;;;;;;10457031;28;20745;-68
2022/01/24 07:50:18;;;;;;;0.33;0.33;;;17.50;64.90;;;;;;10455248;28;20225;-68
2022/01/24 07:55:40;;;;;;;1.60;0.40;;;17.50;64.80;;;;;;10454800;28;20219;-68
2022/01/24 08:01:02;;;;;;;0.63;0.50;;;17.50;64.80;;;;;;10458947;28;20832;-69
2022/01/24 08:06:26;;;;;;;0.77;0.50;;;17.50;64.80;;;;;;10454531;28;20205;-69
2022/01/24 08:11:48;;;;;;;0.40;0.33;;;17.40;64.70;;;;;;10459369;28;20217;-69
2022/01/24 08:17:10;;;;;;;0.50;0.50;;;17.40;64.80;;;;;;10454427;28;20204;-69
2022/01/24 08:22:34;;;;;;;0.50;0.40;;;17.40;64.80;;;;;;10452811;28;20221;-69
2022/01/24 08:27:56;;;;;;;0.80;0.53;;;17.40;64.90;;;;;;10460517;28;20197;-69
2022/01/24 08:33:18;;;;;;;0.60;0.60;;;17.40;65.00;;;;;;10454921;28;20232;-69
2022/01/24 08:38:45;;;;;;;1.37;0.57;;;17.40;65.50;;;;;;10454259;28;20217;-69
2022/01/24 08:44:18;;;;;;;0.40;0.40;;;17.40;65.50;;;;;;10456957;28;20230;-69
2022/01/24 08:49:41;;;;;;;0.60;0.40;;;17.40;64.90;;;;;;10457088;28;20220;-69
2022/01/24 08:55:05;;;;;;;0.60;0.40;;;17.40;64.90;;;;;;10465870;28;20208;-69
2022/01/24 09:00:28;;;;;;;0.50;0.50;;;17.40;65.00;;;;;;10452414;28;20209;-69
2022/01/24 09:05:52;;;;;;;0.70;0.50;;;17.30;65.00;;;;;;10452083;28;20751;-68
2022/01/24 09:11:16;;;;;;;0.60;0.50;;;17.40;65.00;;;;;;10453510;28;20304;-68
2022/01/24 09:16:39;;;;;;;1.20;0.70;;;17.30;64.80;;;;;;10453974;28;20215;-68
2022/01/24 09:22:01;;;;;;;1.23;0.70;;;17.40;64.90;;;;;;10453445;28;20288;-68
2022/01/24 09:27:24;;;;;;;1.17;0.40;;;17.30;64.80;;;;;;10479927;28;20603;-69
2022/01/24 09:32:47;;;;;;;0.83;0.70;;;17.30;64.80;;;;;;10460815;28;20223;-69
2022/01/24 09:38:09;;;;;;;0.60;0.60;;;17.30;64.80;;;;;;10489511;28;20212;-69
2022/01/24 09:43:33;;;;;;;0.50;0.50;;;17.30;64.90;;;;;;10471073;28;20580;-67
2022/01/24 09:48:56;;;;;;;0.53;0.53;;;17.40;64.90;;;;;;10451227;28;20228;-68
2022/01/24 09:54:18;;;;;;;1.07;0.70;;;17.40;65.10;;;;;;10451798;28;20213;-69
2022/01/24 09:59:41;;;;;;;0.77;0.60;;;17.40;64.90;;;;;;10447015;28;20224;-69
2022/01/24 10:05:15;;;;;;;0.50;0.50;;;17.40;64.90;;;;;;10447558;28;20193;-68
2022/01/24 10:10:41;;;;;;;0.80;0.50;;;17.40;64.80;;;;;;10447252;28;20213;-69
2022/01/24 10:16:27;;;;;;;0.70;0.70;;;17.40;65.00;;;;;;10462076;28;20192;-69
2022/01/24 10:21:51;;;;;;;0.50;0.50;;;17.40;64.90;;;;;;10436356;28;20213;-69
2022/01/24 10:27:16;;;;;;;0.53;0.50;;;17.40;65.10;;;;;;10455640;28;20201;-69
2022/01/24 10:32:42;;;;;;;0.40;0.40;;;17.40;65.20;;;;;;10456129;28;20221;-69
2022/01/24 10:38:24;;;;;;;0.67;0.57;;;17.40;65.20;;;;;;10463321;28;20215;-68
2022/01/24 10:43:47;;;;;;;0.73;0.60;;;17.50;65.10;;;;;;10443267;28;20278;-69
2022/01/24 10:49:13;;;;;;;0.83;0.60;;;17.50;65.10;;;;;;10417560;28;20213;-69
2022/01/24 10:54:35;;;;;;;0.70;0.50;;;17.50;65.10;;;;;;10417239;28;20344;-69
2022/01/24 11:00:01;;;;;;;0.67;0.63;;;17.50;65.00;;;;;;10426164;28;20213;-69
2022/01/24 11:05:28;;;;;;;1.20;0.50;;;17.60;65.00;;;;;;10457061;28;20198;-69
2022/01/24 11:10:53;;;;;;;0.40;0.40;;;17.60;65.00;;;;;;10458228;28;20213;-69
2022/01/24 11:16:18;;;;;;;0.40;0.40;;;17.60;64.90;;;;;;10462658;28;20203;-68
2022/01/24 11:21:42;;;;;;;0.47;0.47;;;17.60;64.90;;;;;;10475698;28;20217;-69
2022/01/24 11:27:05;;;;;;;0.53;0.43;;;17.60;64.90;;;;;;10464418;28;20189;-69
2022/01/24 11:32:29;;;;;;;0.80;0.50;;;17.60;64.80;;;;;;10472457;28;20216;-69
2022/01/24 11:37:53;;;;;;;0.63;0.40;;;17.60;64.80;;;;;;10458106;28;20215;-69
2022/01/24 11:43:29;;;;;;;0.50;0.50;;;17.60;64.80;;;;;;10455604;28;20189;-69
2022/01/24 11:49:04;;;;;;;0.80;0.43;;;17.60;64.60;;;;;;10456454;28;20205;-69
2022/01/24 11:54:31;;;;;;;0.80;0.60;;;17.60;64.60;;;;;;10455990;28;20596;-69
2022/01/24 12:00:15;;;;;;;1.40;0.73;;;17.60;64.80;;;;;;10455831;28;20613;-69
2022/01/24 12:05:43;;;;;;;1.10;0.60;;;17.60;64.50;;;;;;10443782;28;20556;-68
2022/01/24 12:11:15;;;;;;;2.03;1.00;;;17.60;64.70;;;;;;10436952;28;20208;-68
2022/01/24 12:16:39;;;;;;;1.27;0.90;;;17.60;64.60;;;;;;10463519;28;20196;-70
2022/01/24 12:22:36;;;;;;;1.20;0.80;;;17.60;64.60;;;;;;10471449;28;20205;-69
2022/01/24 12:28:19;;;;;;;2.13;0.80;;;17.60;64.40;;;;;;10466094;28;20201;-68
2022/01/24 12:33:44;;;;;;;1.00;0.90;;;17.60;64.30;;;;;;10459427;22;20573;-68
2022/01/24 12:39:11;;;;;;;1.10;0.90;;;17.60;64.50;;;;;;10453476;28;20200;-68
2022/01/24 12:50:16;;;;;;;1.03;0.73;;;17.60;64.50;;;;;;10420343;28;20693;-69
2022/01/24 12:55:38;;;;;;;1.10;0.83;;;17.50;64.50;;;;;;10405682;28;20206;-68
2022/01/24 13:01:03;;;;;;;1.90;1.03;;;17.50;64.60;;;;;;10401016;28;20720;-69
2022/01/24 13:06:26;;;;;;;1.77;1.20;;;17.50;64.80;;;;;;10406529;28;20204;-67
2022/01/24 13:11:51;;;;;;;1.47;1.00;;;17.50;65.10;;;;;;10401718;28;20236;-67
2022/01/24 13:22:59;;;;;;;2.23;1.10;;;17.50;65.30;;;;;;10421023;28;20339;-69
2022/01/24 13:28:23;;;;;;;1.27;0.90;;;17.50;65.40;;;;;;10407272;28;20223;-70
2022/01/24 13:33:48;;;;;;;1.23;0.80;;;17.50;65.50;;;;;;10406055;28;20954;-69
2022/01/24 13:39:12;;;;;;;2.33;1.20;;;17.40;65.50;;;;;;10402949;28;20625;-70
2022/01/24 13:44:34;;;;;;;1.33;1.00;;;17.50;65.70;;;;;;10407087;28;20205;-69
2022/01/24 13:49:57;;;;;;;2.50;0.97;;;17.40;65.60;;;;;;10400532;28;20248;-69
2022/01/24 13:55:22;;;;;;;1.37;0.80;;;17.50;65.70;;;;;;10404839;28;20225;-70
2022/01/24 14:00:56;;;;;;;2.13;1.03;;;17.50;65.80;;;;;;10405343;28;20214;-70
2022/01/24 14:06:19;;;;;;;2.40;0.90;;;17.40;65.80;;;;;;10404321;28;20201;-70
2022/01/24 14:11:44;;;;;;;1.27;0.83;;;17.50;65.90;;;;;;10402766;28;20225;-69
2022/01/24 14:17:19;;;;;;;1.67;0.93;;;17.40;65.90;;;;;;10402775;28;20625;-69
2022/01/24 14:22:45;;;;;;;1.97;1.10;;;17.40;65.90;;;;;;10408598;28;20220;-68
2022/01/24 14:28:10;;;;;;;0.70;0.60;;;17.50;66.00;;;;;;10410514;28;20546;-69
2022/01/24 14:33:34;;;;;;;1.57;0.73;;;17.40;66.00;;;;;;10402106;28;20332;-68
2022/01/24 14:39:00;;;;;;;1.53;0.90;;;17.40;66.10;;;;;;10381434;28;20208;-69
2022/01/24 14:50:02;;;;;;;1.10;0.87;;;17.50;66.20;;;;;;10373514;28;20635;-68
2022/01/24 14:55:26;;;;;;;1.90;1.10;;;17.50;65.90;;;;;;10404481;28;20225;-68
2022/01/24 15:00:48;;;;;;;1.83;0.80;;;17.60;65.80;;;;;;10413587;28;20220;-67
2022/01/24 15:06:12;;;;;;;1.80;0.97;;;17.60;65.70;;;;;;10413556;28;20197;-67
2022/01/24 15:11:36;;;;;;;1.27;1.00;;;17.60;65.60;;;;;;10412834;28;20224;-67
2022/01/24 15:17:06;;;;;;;2.80;1.23;;;17.70;65.50;;;;;;10419088;28;20201;-66
2022/01/24 15:28:11;;;;;;;1.53;1.00;;;17.60;65.40;;;;;;10418745;28;20186;-67
2022/01/24 15:33:37;;;;;;;1.73;1.30;;;17.70;65.40;;;;;;10374908;28;20221;-68
2022/01/24 15:39:03;;;;;;;1.83;1.20;;;17.70;65.40;;;;;;10414715;28;20185;-66
2022/01/24 15:50:09;;;;;;;2.10;1.52;;;17.70;65.70;;;;;;10414140;28;20451;-66
2022/01/24 15:55:34;;;;;;;2.87;1.47;;;18.30;63.30;;;;;;10414834;28;20688;-69
2022/01/24 16:00:58;;;;;;;4.30;1.53;;;17.90;64.50;;;;;;10427175;28;20229;-66
2022/01/24 16:06:20;;;;;;;1.80;1.50;;;17.80;65.00;;;;;;10411873;28;20696;-67
2022/01/24 16:11:42;;;;;;;2.47;1.47;;;17.70;65.00;;;;;;10411318;28;20816;-67
2022/01/24 16:17:06;;;;;;;1.93;1.40;;;17.70;65.10;;;;;;10412203;28;20197;-67
2022/01/24 16:22:45;;;;;;;1.63;1.53;;;17.70;65.10;;;;;;10407521;28;20225;-67
2022/01/24 16:28:09;;;;;;;2.17;1.37;;;17.70;65.10;;;;;;10410538;28;20668;-67
2022/01/24 16:33:35;;;;;;;2.73;1.53;;;17.70;65.10;;;;;;10409896;28;20734;-67
2022/01/24 16:38:57;;;;;;;1.57;1.30;;;17.70;65.10;;;;;;10406112;28;20201;-67
2022/01/24 16:44:34;;;;;;;2.97;1.40;;;17.70;65.00;;;;;;10411459;28;20225;-67
2022/01/24 16:49:58;;;;;;;3.23;1.40;;;17.70;65.00;;;;;;10411476;28;20252;-67
2022/01/24 16:55:22;;;;;;;3.40;1.50;;;17.70;65.10;;;;;;10410809;28;20584;-67
2022/01/24 17:00:47;;;;;;;1.97;1.43;;;17.70;65.00;;;;;;10410530;28;20220;-67
2022/01/24 17:06:10;;;;;;;1.83;1.40;;;17.70;65.00;;;;;;10413392;28;20197;-68
2022/01/24 17:11:33;;;;;;;2.53;1.43;;;17.70;65.00;;;;;;10442293;28;20707;-67
2022/01/24 17:16:55;;;;;;;1.53;1.30;;;17.70;65.00;;;;;;10441627;28;20580;-67
2022/01/24 17:22:18;;;;;;;2.13;1.47;;;17.70;65.00;;;;;;10435128;28;20221;-67
2022/01/24 17:27:41;;;;;;;1.73;1.40;;;17.60;64.90;;;;;;10425446;28;20206;-67
2022/01/24 17:33:04;;;;;;;1.90;1.40;;;17.70;65.00;;;;;;10409390;28;20448;-67
2022/01/24 17:38:28;;;;;;;2.07;1.40;;;18.00;63.80;;;;;;10405120;28;20198;-66
2022/01/24 17:43:50;;;;;;;2.10;1.60;;;17.90;64.40;;;;;;10397454;28;20217;-67
2022/01/24 17:49:12;;;;;;;2.10;1.33;;;17.80;64.70;;;;;;10408852;28;20190;-67
2022/01/24 17:54:36;;;;;;;4.10;1.80;;;17.70;64.80;;;;;;10406750;28;20429;-67
2022/01/24 17:59:58;;;;;;;2.43;1.67;;;18.60;62.00;;;;;;10404750;28;20228;-67
2022/01/24 18:05:20;;;;;;;2.87;1.37;;;18.10;64.00;;;;;;10409803;28;20190;-68
2022/01/24 18:10:44;;;;;;;1.77;1.53;;;17.90;64.60;;;;;;10407129;28;20217;-66
2022/01/24 18:16:08;;;;;;;3.27;1.77;;;17.80;64.80;;;;;;10409594;28;20300;-67
2022/01/24 18:21:30;;;;;;;3.30;1.67;;;17.80;64.90;;;;;;10409729;28;20213;-66
2022/01/24 18:26:53;;;;;;;2.63;2.00;;;17.70;64.80;;;;;;10412316;28;20669;-66
2022/01/24 18:32:15;;;;;;;2.27;1.80;;;17.70;64.90;;;;;;10451425;22;20227;-68
2022/01/24 18:37:38;;;;;;;1.90;1.70;;;17.70;64.90;;;;;;10472899;28;20579;-69
2022/01/24 18:43:01;;;;;;;1.93;1.63;;;17.70;64.90;;;;;;10479398;28;20213;-69
2022/01/24 18:48:24;;;;;;;2.37;1.80;;;17.70;64.80;;;;;;10484845;28;20666;-68
2022/01/24 18:53:46;;;;;;;2.70;1.93;;;17.70;64.90;;;;;;10461726;28;20227;-69
2022/01/24 18:59:10;;;;;;;2.83;2.20;;;17.70;64.90;;;;;;10457113;28;20193;-67
2022/01/24 19:04:32;;;;;;;2.47;2.10;;;17.70;64.90;;;;;;10457390;28;20688;-69
2022/01/24 19:09:54;;;;;;;3.67;2.30;;;17.70;65.00;;;;;;10440142;28;20678;-68
2022/01/24 19:15:24;;;;;;;3.80;2.17;;;17.70;64.90;;;;;;10436821;28;20221;-68
2022/01/24 19:26:29;;;;;;;3.37;2.30;;;17.70;64.90;;;;;;10441536;28;20676;-68
2022/01/24 19:31:52;;;;;;;3.13;2.40;;;17.70;65.00;;;;;;10435207;28;20874;-69
2022/01/24 19:37:14;;;;;;;3.33;2.57;;;17.70;64.90;;;;;;10435274;28;20581;-69
2022/01/24 19:42:37;;;;;;;5.53;2.90;;;17.70;65.00;;;;;;10435377;28;20703;-68
2022/01/24 19:48:02;;;;;;;2.73;2.20;;;17.70;65.00;;;;;;10436394;28;20190;-69
2022/01/24 19:53:25;;;;;;;2.97;2.40;;;17.70;65.00;;;;;;10436834;28;20218;-69
2022/01/24 19:58:52;;;;;;;4.63;2.80;;;17.70;65.00;;;;;;10445250;28;20208;-69
2022/01/24 20:04:19;;;;;;;3.27;2.60;;;17.70;65.00;;;;;;10435849;28;20224;-68
2022/01/24 20:09:41;;;;;;;2.97;2.37;;;17.70;65.00;;;;;;10435685;28;20200;-68
2022/01/24 20:15:04;;;;;;;4.17;2.47;;;17.70;65.00;;;;;;10432540;28;20701;-68
2022/01/24 20:20:27;;;;;;;2.93;2.37;;;17.70;64.90;;;;;;10438460;28;20205;-68
2022/01/24 20:25:52;;;;;;;3.20;2.50;;;17.70;64.90;;;;;;10436506;28;20197;-69
2022/01/24 20:31:14;;;;;;;3.90;2.70;;;17.70;65.00;;;;;;10446459;28;20296;-68
2022/01/24 20:36:37;;;;;;;3.87;3.10;;;17.70;65.00;;;;;;10437713;28;20213;-69
2022/01/24 20:42:00;;;;;;;4.17;2.97;;;17.70;64.90;;;;;;10445112;28;20600;-68
2022/01/24 20:47:24;;;;;;;3.50;2.53;;;17.70;64.90;;;;;;10434661;28;20561;-68
2022/01/24 20:52:50;;;;;;;3.40;2.97;;;17.70;65.00;;;;;;10432949;28;20221;-68
2022/01/24 20:58:13;;;;;;;3.40;3.10;;;17.70;64.90;;;;;;10433327;28;20193;-68
2022/01/24 21:03:36;;;;;;;4.40;3.17;;;17.70;64.90;;;;;;10431622;28;20209;-68
2022/01/24 21:08:59;;;;;;;4.73;3.03;;;17.70;64.80;;;;;;10431983;28;20221;-68
2022/01/24 21:14:22;;;;;;;4.47;3.10;;;17.70;64.80;;;;;;10454262;28;20228;-69
2022/01/24 21:19:45;;;;;;;4.07;3.50;;;17.70;64.80;;;;;;10469766;28;20206;-69
2022/01/24 21:25:09;;;;;;;3.77;3.30;;;17.70;64.80;;;;;;10443250;28;20587;-69
2022/01/24 21:30:32;;;;;;;3.57;3.27;;;17.70;64.80;;;;;;10434994;28;20197;-69
2022/01/24 21:35:54;;;;;;;3.83;3.30;;;17.70;64.80;;;;;;10429724;28;20232;-69
2022/01/24 21:41:20;;;;;;;3.23;2.93;;;17.70;64.80;;;;;;10431370;28;21033;-68
2022/01/24 21:46:43;;;;;;;3.33;2.90;;;17.70;64.80;;;;;;10430090;28;20669;-68
2022/01/24 21:52:05;;;;;;;3.97;3.50;;;17.70;64.90;;;;;;10430749;28;20570;-68
2022/01/24 21:57:29;;;;;;;3.67;3.07;;;17.70;64.90;;;;;;10429124;28;20212;-69
2022/01/24 22:02:54;;;;;;;3.43;3.07;;;17.70;64.90;;;;;;10448787;28;20213;-68
2022/01/24 22:13:57;;;;;;;4.00;3.33;;;17.60;64.90;;;;;;10445378;28;20222;-69
2022/01/24 22:19:19;;;;;;;4.77;3.47;;;17.60;64.90;;;;;;10419161;28;20201;-69
2022/01/24 22:24:41;;;;;;;3.70;3.00;;;17.60;64.90;;;;;;10426677;28;20564;-68
2022/01/24 22:30:06;;;;;;;3.77;3.37;;;17.60;64.90;;;;;;10474577;28;20208;-69
2022/01/24 22:35:28;;;;;;;4.27;3.47;;;17.60;64.90;;;;;;10474791;28;20229;-69
2022/01/24 22:41:09;;;;;;;5.03;3.50;;;17.60;64.90;;;;;;10418204;28;20205;-69
2022/01/24 22:46:32;;;;;;;4.30;3.70;;;17.60;64.90;;;;;;10459219;28;20672;-69
2022/01/24 22:51:58;;;;;;;4.37;3.53;;;17.60;65.00;;;;;;10458187;28;20247;-69
2022/01/24 22:57:21;;;;;;;3.60;3.20;;;17.60;64.90;;;;;;10447200;28;20198;-69
2022/01/24 23:02:44;;;;;;;3.90;3.50;;;17.60;64.90;;;;;;10450120;28;20587;-68
2022/01/24 23:08:07;;;;;;;5.10;4.07;;;17.70;65.00;;;;;;10454522;28;20189;-68
2022/01/24 23:17:30;;;;;;;4.10;3.70;;;17.60;64.90;;;;;;10456846;28;20220;-68
2022/01/24 23:19:19;;;;;;;4.70;3.70;;;17.60;64.90;;;;;;10456291;28;20204;-69
2022/01/24 23:24:45;;;;;;;4.00;3.43;;;17.60;64.90;;;;;;10461105;28;20564;-68
2022/01/24 23:30:09;;;;;;;5.07;3.80;;;17.60;64.90;;;;;;10464855;28;20286;-68
2022/01/24 23:41:15;;;;;;;5.10;4.00;;;17.60;64.90;;;;;;10455452;28;20201;-67
2022/01/24 23:46:39;;;;;;;4.33;3.77;;;17.60;64.90;;;;;;10422770;28;20332;-68
2022/01/24 23:52:03;;;;;;;4.33;3.90;;;17.70;64.90;;;;;;10414659;28;20213;-68
2022/01/24 23:57:27;;;;;;;4.70;4.00;;;17.60;64.80;;;;;;10414838;28;20206;-69
